Mackinaw City, MI (49701)

3:42 PM EDT on August 03, 2015 (GMT -0400)
MesoWest | | Change Station
CLOSE
Current Station
Personal Weather Station
Location: Mackinaw City, MI
Elevation: 646 ft
Nearby Weather Stations

Elev 646 ft 45.76 °N, 84.73 °W | Updated 42 minutes ago

Overcast
Overcast
67 °F
Feels Like 67 °F
N
7
Wind Variable Wind from North
Gusts 21.0 mph

Today
High -- | Low -- °F
--% Chance of Precip.
Yesterday
High -- | Low -- °F
Precip. -- in
6:24 AM 9:05 PM
Waning Gibbous, 84% visible
Pressure 29.75 in
Visibility 10.0 miles
Clouds Scattered Clouds 5000 ft
Overcast 7500 ft
Dew Point 55 °F
Humidity 67%
Rainfall in
Snow Depth Not available.
UV 3 out of 12
Pollen 5.40 out of 12
Air Quality Not available.
Flu Activity Not available.
METAR KMCD 031934Z AUTO 27011G14KT 10SM SCT050 OVC075 18/13 A2975 RMK AO2 T01830125

More Conditions Fewer Conditions

Pressure 29.75 in
Visibility 10.0 miles
Clouds Scattered Clouds 5000 ft
Overcast 7500 ft
Dew Point 55 °F
Humidity 67%
Rainfall in
Snow Depth Not available.
UV 3 out of 12
Pollen 5.40 out of 12
Air Quality Not available.
Flu Activity Not available.
METAR KMCD 031934Z AUTO 27011G14KT 10SM SCT050 OVC075 18/13 A2975 RMK AO2 T01830125

More Conditions Fewer Conditions

Nowcast | as of 2:00 PM EDT on August 3, 2015

At 3 PM...mostly cloudy. Slight chance of showers and isolated thunderstorms. Temperature 68. West winds 13 mph. At 5 PM...mostly cloudy. Slight chance of showers and isolated thunderstorms. Temperature 68. West winds 12 mph. At 7 PM...mostly cloudy. Slight chance of showers and isolated thunderstorms. Temperature 67. Northwest winds 9 mph. At 9 PM...mostly cloudy. Chance of showers. Temperature 64. Northwest winds 7 mph.

×

10-Day Weather Forecast

×

Almanac

Astronomy

Aug. 03, 2015 Rise Set
Actual Time
Civil Twilight
Nautical Twilight
Astronomical Twilight
Moon
Length of Visible Light
Length of Day
Tomorrow will be .
, % of the Moon is Illuminated

Today's Extremes

State Highs State Lows

Community

WunderPhotos

Upload Photos

1,843,717 photos uploaded!

WunderBlogs® & News

Nearby

Air Quality

  Air Quality AQ Index Pollutant
Not available.

Snow Depth

Station Depth Elevation

Earthquake Activity

City Distance Mag. Time & Date
Minimum magnitude displayed is 2.5.

Coastal Water Temperatures

Place Temperature

Stations

Nearby Weather Stations

Station Location Temp. Windchill Dew Point Humidity Wind Precip. Elev Updated Type